Resolute — WTW2234 — position and weather

sailwx.info

Track history (hours):
 
Tides and Currents Weather Stations Pressure Air Temp Water Temp Dewpoint Dewpoint Depression Visibility Wind Speed Wind Dir Waves Ship Positions

Resolute

Owner: Providence Steamboat Co., PROVIDENCE, RI. More information available from US FCC via Universal Licensing System and Coast Guard Vessel Documentation Center.

Last reported at 2017-May-25 18:39 UTC. Time now 2017-May-28 18:30 UTC.
Position N 41°42' W 071°11'.

Length 30 m; draft 4 m.

Type: Tug. MMSI: 367091630.

Date/timePositionNaut miles runAvg speedWind from/ knotsBaromVisibWave heightAir tempDewpointWater temp
2017-May-25 18:39N 41°42' W 071°11'58 7.5
2017-May-25 10:58N 41°12' W 072°17'4 9.1
2017-May-25 10:30N 41°10' W 072°22'5 9.8
2017-May-25 10:00N 41°09' W 072°29'510.1
2017-May-25 09:30N 41°08' W 072°35'510.9
2017-May-25 09:00N 41°07' W 072°42'5111.0
2017-May-25 04:19N 40°50' W 073°47'3 7.6
2017-May-25 03:57N 40°48' W 073°49'4 8.7
2017-May-25 03:30N 40°48' W 073°55'3 6.7
2017-May-25 03:00N 40°45' W 073°58'4 7.3
2017-May-25 02:30N 40°42' W 074°00'5 9.1
2017-May-25 02:00N 40°39' W 074°05'4 8.3
2017-May-25 01:30N 40°39' W 074°10'0 0.1
2017-May-25 00:59N 40°39' W 074°10'0 0.0
2017-May-25 00:29N 40°39' W 074°10'0 0.0
2017-May-24 23:59N 40°39' W 074°10'2 5.1
2017-May-24 23:30N 40°39' W 074°07'1 2.1
2017-May-24 22:59N 40°39' W 074°05'0 0.0
2017-May-24 22:29N 40°39' W 074°05'0 0.0
2017-May-24 21:59N 40°39' W 074°05'3 5.4
2017-May-24 21:30N 40°39' W 074°09'2 3.5
2017-May-24 21:01N 40°40' W 074°08'0 0.2
2017-May-24 20:31N 40°40' W 074°08'1 1.9
2017-May-24 20:00N 40°41' W 074°09'0 0.5
2017-May-24 19:30N 40°41' W 074°09'0 0.1
2017-May-24 19:00N 40°41' W 074°09'2 4.6
2017-May-24 18:30N 40°39' W 074°09'4 8.6
2017-May-24 18:00N 40°40' W 074°03'612.0
2017-May-24 17:30N 40°46' W 074°01'1 1.2
2017-May-24 17:00N 40°46' W 074°00'0 0.1
2017-May-24 16:27N 40°46' W 074°00'0 0.0
2017-May-24 16:00N 40°46' W 074°00'0 0.0
2017-May-24 15:28N 40°46' W 074°00'4 9.1
2017-May-24 15:01N 40°50' W 073°58'2 4.1
2017-May-24 14:30N 40°48' W 073°59'7 6.7
2017-May-24 13:30N 40°42' W 074°02'4 7.3
2017-May-24 13:00N 40°38' W 074°03'1 1.2
2017-May-24 12:30N 40°38' W 074°04'0 0.0
2017-May-24 12:00N 40°38' W 074°04'1 1.5
2017-May-24 11:30N 40°38' W 074°04'3 5.9
2017-May-24 11:00N 40°39' W 074°08'1 2.8
2017-May-24 10:29N 40°38' W 074°10'0 0.0
2017-May-24 09:59N 40°38' W 074°10'2 4.0
2017-May-24 09:30N 40°40' W 074°08'1 2.6
2017-May-24 09:00N 40°41' W 074°09'2 3.3
2017-May-24 08:30N 40°40' W 074°09'1 2.5
2017-May-24 08:00N 40°38' W 074°09'0 0.9
2017-May-24 07:29N 40°38' W 074°10'0 0.0
2017-May-24 06:59N 40°38' W 074°10'0 0.0
2017-May-24 06:29N 40°38' W 074°10'0 0.0
2017-May-24 05:59N 40°38' W 074°10'0 0.0
2017-May-24 05:29N 40°38' W 074°10'0 0.0
2017-May-24 04:59N 40°38' W 074°10'0 0.0
2017-May-24 04:29N 40°38' W 074°10'0 0.0
2017-May-24 03:59N 40°38' W 074°10'0 0.0
2017-May-24 03:29N 40°38' W 074°10'0 0.0
2017-May-24 02:59N 40°38' W 074°10'0 0.0
2017-May-24 02:29N 40°38' W 074°10'0 0.0
2017-May-24 01:59N 40°38' W 074°10'0 0.0
2017-May-24 01:29N 40°38' W 074°10'0 0.0
2017-May-24 00:59N 40°38' W 074°10'0 0.0
2017-May-24 00:29N 40°38' W 074°10'0 0.0
2017-May-23 23:59N 40°38' W 074°10'0 0.0
2017-May-23 23:29N 40°38' W 074°10'0 0.0
2017-May-23 22:59N 40°38' W 074°10'0 0.0
2017-May-23 22:29N 40°38' W 074°10'0 0.0
2017-May-23 21:59N 40°38' W 074°10'0 0.0
2017-May-23 21:29N 40°38' W 074°10'0 0.0
2017-May-23 20:59N 40°38' W 074°10'0 0.0
2017-May-23 20:29N 40°38' W 074°10'0 0.0
2017-May-23 19:59N 40°38' W 074°10'  
Track history (hours):
 
Tides and Currents Weather Stations Pressure Air Temp Water Temp Dewpoint Dewpoint Depression Visibility Wind Speed Wind Dir Waves Ship Positions

Resolute

Owner: Providence Steamboat Co., PROVIDENCE, RI. More information available from US FCC via Universal Licensing System and Coast Guard Vessel Documentation Center.

Last reported at 2017-May-25 18:39 UTC. Time now 2017-May-28 18:30 UTC.
Position N 41°42' W 071°11'.

Length 30 m; draft 4 m.

Type: Tug. MMSI: 367091630.

Date/timePositionNaut miles runAvg speedWind from/ knotsBaromVisibWave heightAir tempDewpointWater temp
2017-May-25 18:39N 41°42' W 071°11'58 7.5
2017-May-25 10:58N 41°12' W 072°17'4 9.1
2017-May-25 10:30N 41°10' W 072°22'5 9.8
2017-May-25 10:00N 41°09' W 072°29'510.1
2017-May-25 09:30N 41°08' W 072°35'510.9
2017-May-25 09:00N 41°07' W 072°42'5111.0
2017-May-25 04:19N 40°50' W 073°47'3 7.6
2017-May-25 03:57N 40°48' W 073°49'4 8.7
2017-May-25 03:30N 40°48' W 073°55'3 6.7
2017-May-25 03:00N 40°45' W 073°58'4 7.3
2017-May-25 02:30N 40°42' W 074°00'5 9.1
2017-May-25 02:00N 40°39' W 074°05'4 8.3
2017-May-25 01:30N 40°39' W 074°10'0 0.1
2017-May-25 00:59N 40°39' W 074°10'0 0.0
2017-May-25 00:29N 40°39' W 074°10'0 0.0
2017-May-24 23:59N 40°39' W 074°10'2 5.1
2017-May-24 23:30N 40°39' W 074°07'1 2.1
2017-May-24 22:59N 40°39' W 074°05'0 0.0
2017-May-24 22:29N 40°39' W 074°05'0 0.0
2017-May-24 21:59N 40°39' W 074°05'3 5.4
2017-May-24 21:30N 40°39' W 074°09'2 3.5
2017-May-24 21:01N 40°40' W 074°08'0 0.2
2017-May-24 20:31N 40°40' W 074°08'1 1.9
2017-May-24 20:00N 40°41' W 074°09'0 0.5
2017-May-24 19:30N 40°41' W 074°09'0 0.1
2017-May-24 19:00N 40°41' W 074°09'2 4.6
2017-May-24 18:30N 40°39' W 074°09'4 8.6
2017-May-24 18:00N 40°40' W 074°03'612.0
2017-May-24 17:30N 40°46' W 074°01'1 1.2
2017-May-24 17:00N 40°46' W 074°00'0 0.1
2017-May-24 16:27N 40°46' W 074°00'0 0.0
2017-May-24 16:00N 40°46' W 074°00'0 0.0
2017-May-24 15:28N 40°46' W 074°00'4 9.1
2017-May-24 15:01N 40°50' W 073°58'2 4.1
2017-May-24 14:30N 40°48' W 073°59'7 6.7
2017-May-24 13:30N 40°42' W 074°02'4 7.3
2017-May-24 13:00N 40°38' W 074°03'1 1.2
2017-May-24 12:30N 40°38' W 074°04'0 0.0
2017-May-24 12:00N 40°38' W 074°04'1 1.5
2017-May-24 11:30N 40°38' W 074°04'3 5.9
2017-May-24 11:00N 40°39' W 074°08'1 2.8
2017-May-24 10:29N 40°38' W 074°10'0 0.0
2017-May-24 09:59N 40°38' W 074°10'2 4.0
2017-May-24 09:30N 40°40' W 074°08'1 2.6
2017-May-24 09:00N 40°41' W 074°09'2 3.3
2017-May-24 08:30N 40°40' W 074°09'1 2.5
2017-May-24 08:00N 40°38' W 074°09'0 0.9
2017-May-24 07:29N 40°38' W 074°10'0 0.0
2017-May-24 06:59N 40°38' W 074°10'0 0.0
2017-May-24 06:29N 40°38' W 074°10'0 0.0
2017-May-24 05:59N 40°38' W 074°10'0 0.0
2017-May-24 05:29N 40°38' W 074°10'0 0.0
2017-May-24 04:59N 40°38' W 074°10'0 0.0
2017-May-24 04:29N 40°38' W 074°10'0 0.0
2017-May-24 03:59N 40°38' W 074°10'0 0.0
2017-May-24 03:29N 40°38' W 074°10'0 0.0
2017-May-24 02:59N 40°38' W 074°10'0 0.0
2017-May-24 02:29N 40°38' W 074°10'0 0.0
2017-May-24 01:59N 40°38' W 074°10'0 0.0
2017-May-24 01:29N 40°38' W 074°10'0 0.0
2017-May-24 00:59N 40°38' W 074°10'0 0.0
2017-May-24 00:29N 40°38' W 074°10'0 0.0
2017-May-23 23:59N 40°38' W 074°10'0 0.0
2017-May-23 23:29N 40°38' W 074°10'0 0.0
2017-May-23 22:59N 40°38' W 074°10'0 0.0
2017-May-23 22:29N 40°38' W 074°10'0 0.0
2017-May-23 21:59N 40°38' W 074°10'0 0.0
2017-May-23 21:29N 40°38' W 074°10'0 0.0
2017-May-23 20:59N 40°38' W 074°10'0 0.0
2017-May-23 20:29N 40°38' W 074°10'0 0.0
2017-May-23 19:59N 40°38' W 074°10'  

Dump ship's entire track history